Radley, United Kingdom
Current Conditions -  °F | °C
As of 7:50 AM on Tuesday 27 Jan 2015 (Local Time) from EGUB Reporting Station
Clear Clear  
Wind Chill: 37°   Ceiling: Unl
Heat Index: 37°   Visibility: 6mi
Dew Point: 36°   Wind: 2mph
Humidity: 93%   Direction: 250°WSW
Pressure: 30.36"   Gusts: NA
Location:  51.69°N, 1.24°W
Report Text: EGUB 270750Z 25002KT CAVOK 03/02 Q1028 BLU NOSIG
Loading
Personal Weather Stations






























Interactive Weather Map New forecast layout! Learn more

10-Day Weather Forecast

Advertisements
Track Severe Weather on mobile